Time;durP1;ratioP1;P1;durP2;ratioP2;P2;SDS_P1;SDS_P2;PMS_P1;PMS_P2;Temp;Humidity;BMP_temperature;BMP_pressure;BME280_temperature;BME280_humidity;BME280_pressure;Samples;Min_cycle;Max_cycle;Signal;HPM_P1;HPM_P2
2023/07/15 00:01:36;;;;;;;3.00;2.70;;;24.20;43.10;;;25.65;35.92;97138.91;5030929;28;20042;-40
2023/07/15 00:04:10;;;;;;;3.63;2.63;;;24.20;43.30;;;25.65;35.73;97138.91;5031318;28;20052;-39
2023/07/15 00:06:38;;;;;;;3.85;3.00;;;24.20;43.30;;;25.65;35.84;97130.72;5030262;28;20444;-40
2023/07/15 00:09:06;;;;;;;5.10;2.30;;;24.10;43.20;;;25.66;35.79;97135.91;5031143;28;20112;-39
2023/07/15 00:11:38;;;;;;;4.35;3.08;;;24.10;43.60;;;25.62;35.95;97136.72;5029848;28;20041;-39
2023/07/15 00:14:21;;;;;;;4.88;3.42;;;24.00;43.80;;;25.57;36.18;97143.00;5031124;28;20068;-39
2023/07/15 00:16:50;;;;;;;4.22;2.83;;;24.00;44.70;;;25.49;36.43;97130.72;5031187;28;20048;-40
2023/07/15 00:19:18;;;;;;;4.03;2.85;;;23.80;44.60;;;25.47;36.16;97132.06;5031203;28;20049;-39
2023/07/15 00:21:47;;;;;;;4.00;2.95;;;23.80;44.60;;;25.41;36.71;97127.69;5028186;28;20408;-40
2023/07/15 00:24:15;;;;;;;4.10;3.58;;;23.70;45.00;;;25.37;36.92;97126.59;5022449;28;20037;-40
2023/07/15 00:26:47;;;;;;;3.30;2.83;;;23.70;45.20;;;25.32;37.00;97130.16;5013890;28;20056;-40
2023/07/15 00:29:16;;;;;;;4.32;3.20;;;23.60;45.40;;;25.29;36.77;97126.03;5023421;28;20038;-39
2023/07/15 00:31:44;;;;;;;3.88;2.92;;;23.60;45.80;;;25.23;37.15;97129.03;5030252;28;20046;-39
2023/07/15 00:34:13;;;;;;;3.33;2.42;;;23.40;46.70;;;25.16;37.39;97129.22;5031295;28;20132;-40
2023/07/15 00:36:41;;;;;;;5.68;3.28;;;23.40;46.40;;;25.11;37.30;97135.50;5030067;28;20057;-56
2023/07/15 00:39:09;;;;;;;6.68;3.83;;;23.30;46.60;;;25.09;37.58;97134.94;5029321;28;20534;-54
2023/07/15 00:41:37;;;;;;;3.85;3.10;;;23.30;46.80;;;25.07;37.36;97131.66;5030760;28;20053;-53
2023/07/15 00:44:06;;;;;;;4.25;3.17;;;23.20;46.80;;;25.03;37.57;97127.00;5030244;28;20050;-53
2023/07/15 00:47:12;;;;;;;3.63;3.33;;;23.30;47.00;;;24.96;37.78;97124.53;5031174;28;20037;-56
2023/07/15 00:49:40;;;;;;;3.78;3.38;;;23.20;48.80;;;24.97;38.07;97123.47;5029951;28;20053;-55
2023/07/15 00:52:13;;;;;;;3.55;3.17;;;23.20;47.10;;;24.92;38.08;97126.16;5034152;28;20045;-51
2023/07/15 00:54:45;;;;;;;5.55;3.67;;;23.30;47.30;;;24.91;38.25;97140.84;5033330;28;20416;-53
2023/07/15 00:57:16;;;;;;;4.22;3.40;;;23.30;47.20;;;24.88;38.36;97136.75;5033467;28;20444;-38
2023/07/15 00:59:45;;;;;;;4.20;3.17;;;23.40;48.00;;;24.80;38.47;97134.56;5016890;28;20049;-38
2023/07/15 01:02:13;;;;;;;4.45;3.75;;;23.40;46.90;;;24.81;38.54;97132.63;5033073;28;20045;-38
2023/07/15 01:04:41;;;;;;;5.05;3.50;;;23.40;47.20;;;24.80;38.50;97136.47;5034381;28;20049;-38
2023/07/15 01:07:09;;;;;;;4.97;3.30;;;23.40;46.90;;;24.78;38.83;97136.72;5033075;28;20056;-38
2023/07/15 01:09:36;;;;;;;3.13;2.83;;;23.40;47.50;;;24.75;38.87;97139.97;5033422;28;20060;-38
2023/07/15 01:12:05;;;;;;;4.10;3.60;;;23.30;47.60;;;24.71;39.04;97139.66;5033028;28;20053;-38
2023/07/15 01:14:35;;;;;;;3.00;2.70;;;23.30;47.60;;;24.73;38.89;97133.97;5033670;28;20047;-38
2023/07/15 01:17:02;;;;;;;4.45;3.55;;;23.20;47.50;;;24.72;38.89;97135.06;5032901;28;20049;-38
2023/07/15 01:19:31;;;;;;;7.47;3.22;;;23.20;47.70;;;24.70;38.92;97134.50;5016618;28;20516;-38
2023/07/15 01:21:59;;;;;;;4.07;3.05;;;23.20;48.00;;;24.65;39.08;97137.19;5032936;28;20045;-38
2023/07/15 01:24:27;;;;;;;6.18;3.17;;;23.00;48.60;;;24.60;39.34;97131.72;5033155;28;20064;-38
2023/07/15 01:27:00;;;;;;;3.80;3.20;;;22.90;49.00;;;24.50;39.52;97133.25;5032695;28;20412;-38
2023/07/15 01:29:28;;;;;;;3.50;2.78;;;22.90;49.20;;;24.50;39.47;97132.44;5032291;28;20049;-38
2023/07/15 01:31:55;;;;;;;3.55;2.90;;;22.80;49.10;;;24.50;39.49;97130.53;5033754;28;20440;-38
2023/07/15 01:34:23;;;;;;;4.63;3.28;;;22.80;49.30;;;24.47;39.60;97133.81;5032761;28;20412;-38
2023/07/15 01:36:51;;;;;;;4.25;2.92;;;22.70;49.60;;;24.43;39.63;97134.56;5032872;28;20045;-38
2023/07/15 01:39:18;;;;;;;6.22;3.03;;;22.70;49.70;;;24.40;39.43;97127.75;5033790;28;20051;-38
2023/07/15 01:41:46;;;;;;;4.75;3.40;;;22.60;49.70;;;24.33;39.69;97125.28;5033269;28;20045;-38
2023/07/15 01:44:15;;;;;;;3.47;2.92;;;22.60;49.80;;;24.32;39.56;97129.06;5032333;28;20528;-38
2023/07/15 01:46:43;;;;;;;3.22;2.92;;;22.60;49.90;;;24.26;39.84;97127.41;5033001;28;20068;-38
2023/07/15 01:49:11;;;;;;;3.50;2.63;;;22.50;50.00;;;24.20;39.75;97114.06;5031788;28;20077;-38
2023/07/15 01:51:40;;;;;;;4.50;3.42;;;22.50;49.90;;;24.21;39.80;97118.41;5033490;28;20034;-38
2023/07/15 01:54:08;;;;;;;4.47;3.72;;;22.50;49.50;;;24.15;39.86;97118.34;5032215;28;20497;-38
2023/07/15 01:56:36;;;;;;;3.15;2.78;;;22.50;49.90;;;24.10;40.02;97117.53;5033725;28;20037;-38
2023/07/15 01:59:04;;;;;;;3.05;2.75;;;22.50;49.60;;;24.11;39.84;97114.53;5032012;28;20413;-38
2023/07/15 02:01:32;;;;;;;3.92;2.78;;;22.50;49.30;;;24.11;39.64;97109.09;5032054;28;20041;-38
2023/07/15 02:03:59;;;;;;;3.50;2.90;;;22.50;49.30;;;24.10;39.66;97106.66;5033351;28;20045;-38
2023/07/15 02:06:27;;;;;;;3.00;2.70;;;22.50;49.10;;;24.13;39.65;97108.81;5023368;28;20049;-38
2023/07/15 02:08:55;;;;;;;3.38;2.58;;;22.50;49.20;;;24.12;39.71;97112.63;5033156;28;20041;-39
2023/07/15 02:11:26;;;;;;;3.53;2.72;;;22.50;49.20;;;24.11;39.63;97105.56;5024631;28;20045;-38
2023/07/15 02:13:54;;;;;;;3.38;2.60;;;22.50;49.00;;;24.08;39.59;97098.75;5032652;28;20056;-39
2023/07/15 02:16:22;;;;;;;3.30;2.60;;;22.50;49.00;;;24.11;39.35;97100.94;5033130;28;20048;-39
2023/07/15 02:18:49;;;;;;;4.70;3.25;;;22.50;48.70;;;24.12;39.32;97099.84;5031910;28;20041;-39
2023/07/15 02:21:19;;;;;;;3.25;2.95;;;22.50;48.70;;;24.04;39.58;97099.50;5032734;28;20060;-39
2023/07/15 02:23:47;;;;;;;3.42;2.90;;;22.50;49.00;;;24.05;39.54;97101.16;5031758;28;20056;-38
2023/07/15 02:26:15;;;;;;;4.60;3.53;;;22.50;48.90;;;24.06;39.47;97094.63;5031852;28;20053;-38
2023/07/15 02:28:43;;;;;;;3.65;3.10;;;22.50;48.90;;;24.05;39.61;97093.81;5030959;28;20413;-38
2023/07/15 02:31:11;;;;;;;3.17;2.88;;;22.50;49.00;;;24.02;39.64;97091.63;5032309;28;20053;-38
2023/07/15 02:33:39;;;;;;;3.88;3.35;;;22.40;49.00;;;24.03;39.66;97089.72;5031664;28;20045;-38
2023/07/15 02:36:06;;;;;;;3.88;2.90;;;22.50;49.00;;;24.04;39.72;97089.47;5032735;28;20044;-38
2023/07/15 02:38:35;;;;;;;3.13;2.45;;;22.50;48.90;;;24.03;39.72;97087.00;5032887;28;20053;-38
2023/07/15 02:41:02;;;;;;;7.40;3.45;;;22.50;49.00;;;23.98;40.12;97082.34;5032957;28;20049;-38
2023/07/15 02:43:31;;;;;;;4.13;2.90;;;22.50;49.10;;;23.95;40.08;97082.88;5031609;28;20045;-38
2023/07/15 02:45:59;;;;;;;3.30;3.00;;;22.40;49.40;;;23.91;40.04;97079.84;5032607;28;20048;-39
2023/07/15 02:48:27;;;;;;;4.32;2.78;;;22.40;49.50;;;23.87;40.11;97086.09;5024650;28;20045;-38
2023/07/15 02:50:55;;;;;;;3.70;2.58;;;22.30;49.40;;;23.87;40.08;97077.94;5031088;28;20045;-38
2023/07/15 02:53:23;;;;;;;4.13;3.17;;;22.40;49.40;;;23.86;40.00;97087.16;5032473;28;20057;-39
2023/07/15 02:55:51;;;;;;;5.55;2.55;;;22.40;49.30;;;23.91;39.82;97089.91;5030916;28;20045;-38
2023/07/15 02:58:18;;;;;;;3.75;3.15;;;22.50;48.90;;;23.97;39.53;97092.41;5032222;28;20037;-38
2023/07/15 03:00:50;;;;;;;2.90;2.60;;;22.50;48.50;;;24.00;39.57;97090.25;4998146;28;20042;-38
2023/07/15 03:03:19;;;;;;;3.78;2.75;;;22.60;48.10;;;24.01;39.39;97079.13;5030978;28;20061;-39
2023/07/15 03:05:50;;;;;;;3.40;2.67;;;22.60;47.60;;;24.09;38.96;97085.97;5030584;28;20041;-38
2023/07/15 03:08:18;;;;;;;3.10;2.60;;;22.80;47.10;;;24.16;38.78;97084.66;5014732;28;20056;-38
2023/07/15 03:10:46;;;;;;;3.70;2.13;;;22.90;46.70;;;24.22;38.87;97084.69;5030480;28;20053;-39
2023/07/15 03:13:13;;;;;;;4.45;2.92;;;22.90;46.50;;;24.24;38.57;97088.78;5030493;28;20046;-38
2023/07/15 03:15:42;;;;;;;5.97;2.83;;;23.00;46.50;;;24.29;38.54;97094.25;5031049;28;20397;-38
2023/07/15 03:18:10;;;;;;;4.07;2.42;;;23.00;46.40;;;24.26;38.59;97092.06;5032004;28;20048;-38
2023/07/15 03:20:38;;;;;;;3.33;2.42;;;22.90;46.60;;;24.27;38.49;97082.84;5031033;28;20050;-38
2023/07/15 03:23:06;;;;;;;4.07;3.20;;;22.90;46.40;;;24.29;38.17;97094.25;5028781;28;20057;-38
2023/07/15 03:25:35;;;;;;;3.97;2.80;;;22.90;46.20;;;24.32;38.18;97088.28;5031151;28;20412;-38
2023/07/15 03:28:03;;;;;;;3.83;2.40;;;23.00;45.90;;;24.37;38.18;97090.22;5032005;28;20045;-40
2023/07/15 03:30:31;;;;;;;3.22;2.70;;;23.10;45.90;;;24.37;38.28;97091.03;5022275;28;20072;-38
2023/07/15 03:32:59;;;;;;;3.47;2.83;;;23.10;46.00;;;24.38;38.30;97092.66;5031112;28;20624;-39
2023/07/15 03:35:27;;;;;;;3.13;2.83;;;23.00;46.20;;;24.39;38.13;97090.78;5032260;28;20037;-38
2023/07/15 03:37:54;;;;;;;3.60;2.83;;;22.90;46.30;;;24.43;38.33;97091.03;5031764;28;20056;-39
2023/07/15 03:40:22;;;;;;;3.53;2.60;;;23.00;46.30;;;24.44;38.13;97090.78;5030054;28;20516;-39
2023/07/15 03:42:49;;;;;;;3.47;2.80;;;23.00;46.40;;;24.43;38.19;97091.03;5030564;28;20052;-38
2023/07/15 03:45:17;;;;;;;3.78;2.78;;;23.00;46.20;;;24.44;38.38;97089.97;5031513;28;20050;-39
2023/07/15 03:47:45;;;;;;;3.65;2.85;;;23.00;46.10;;;24.46;38.33;97087.81;5031635;28;20046;-38
2023/07/15 03:50:12;;;;;;;3.10;2.80;;;23.10;46.10;;;24.45;38.24;97087.00;5030054;28;20053;-38
2023/07/15 03:52:40;;;;;;;3.58;2.55;;;23.00;46.20;;;24.47;38.24;97084.84;5031425;28;20041;-38
2023/07/15 03:55:08;;;;;;;2.75;2.47;;;22.90;46.30;;;24.48;37.97;97086.47;5031467;28;20060;-39
2023/07/15 03:57:35;;;;;;;3.60;2.75;;;23.00;46.50;;;24.46;38.14;97085.09;5031535;28;20041;-39
2023/07/15 04:00:13;;;;;;;2.97;2.67;;;22.90;46.80;;;24.43;38.22;97081.00;5031631;28;20052;-39
2023/07/15 04:02:49;;;;;;;3.42;2.60;;;22.80;47.60;;;24.43;38.28;97080.16;5024565;28;20040;-39
2023/07/15 04:05:17;;;;;;;3.60;2.95;;;22.80;46.90;;;24.43;38.20;97074.72;5032070;28;20041;-39
2023/07/15 04:07:45;;;;;;;2.85;2.55;;;22.90;46.70;;;24.42;38.37;97076.63;5031334;28;20045;-38
2023/07/15 04:10:13;;;;;;;3.28;2.55;;;22.90;46.40;;;24.38;38.56;97075.53;5031482;28;20394;-54
2023/07/15 04:12:41;;;;;;;3.47;2.90;;;22.90;46.70;;;24.38;38.87;97072.81;5031517;28;20037;-55
2023/07/15 04:15:09;;;;;;;4.15;3.45;;;22.90;47.80;;;24.34;39.14;97067.06;5031306;28;20556;-56
2023/07/15 04:17:37;;;;;;;4.57;3.38;;;22.70;48.70;;;24.30;39.36;97065.16;5022687;28;20042;-56
2023/07/15 04:20:11;;;;;;;3.38;2.92;;;22.60;49.00;;;24.25;39.38;97059.69;5031137;28;20041;-54
2023/07/15 04:22:40;;;;;;;4.70;2.83;;;22.60;48.80;;;24.21;39.15;97061.28;5026852;28;20496;-56
2023/07/15 04:25:11;;;;;;;4.88;3.00;;;22.50;48.70;;;24.18;39.49;97058.00;5035280;28;20041;-55
2023/07/15 04:27:39;;;;;;;3.72;2.53;;;22.50;48.70;;;24.16;39.44;97057.47;5027297;28;20057;-53
2023/07/15 04:30:09;;;;;;;3.10;2.60;;;22.50;48.70;;;24.17;39.62;97048.22;5033789;28;20059;-53
2023/07/15 04:32:37;;;;;;;3.50;2.85;;;22.60;48.80;;;24.18;39.68;97049.03;5026895;28;20456;-55
2023/07/15 04:35:05;;;;;;;3.03;2.72;;;22.60;48.70;;;24.18;39.63;97052.56;5035087;28;20049;-56
2023/07/15 04:37:33;;;;;;;2.58;2.25;;;22.70;48.80;;;24.20;39.80;97046.06;5034132;28;20497;-51
2023/07/15 04:40:04;;;;;;;3.25;2.55;;;22.70;48.90;;;24.24;39.90;97064.31;5034967;28;20045;-55
2023/07/15 04:42:31;;;;;;;3.25;2.60;;;22.70;49.10;;;24.26;40.04;97062.13;5035000;28;20057;-54
2023/07/15 04:44:59;;;;;;;4.63;3.30;;;22.80;49.10;;;24.28;39.98;97062.69;5035042;28;20053;-56
2023/07/15 04:47:27;;;;;;;3.53;2.97;;;22.80;49.10;;;24.28;40.22;97064.59;5035477;28;20056;-55
2023/07/15 04:49:54;;;;;;;4.35;2.80;;;22.90;50.20;;;24.30;40.60;97065.16;5035147;28;20485;-55
2023/07/15 04:52:22;;;;;;;3.35;3.05;;;22.90;49.60;;;24.34;40.66;97055.38;5034634;28;20052;-52
2023/07/15 04:54:49;;;;;;;3.65;2.70;;;23.00;49.80;;;24.37;40.80;97071.19;5035430;28;20053;-55
2023/07/15 04:57:19;;;;;;;5.10;3.63;;;23.10;49.70;;;24.38;40.72;97070.09;5034724;28;20045;-55
2023/07/15 04:59:48;;;;;;;4.72;2.95;;;23.10;49.90;;;24.41;40.82;97079.63;5033505;28;20052;-54
2023/07/15 05:02:16;;;;;;;5.47;3.05;;;23.10;49.80;;;24.44;40.73;97070.94;5034744;28;20037;-56
2023/07/15 05:04:43;;;;;;;3.65;2.83;;;23.10;49.90;;;24.47;41.04;97087.56;5034362;28;20519;-56
2023/07/15 05:07:11;;;;;;;3.20;2.90;;;23.20;50.10;;;24.48;41.31;97083.72;5034407;28;20492;-52
2023/07/15 05:09:39;;;;;;;5.38;3.53;;;23.20;50.60;;;24.51;41.49;97085.97;5034387;28;20045;-56
2023/07/15 05:12:07;;;;;;;4.35;3.38;;;23.20;50.70;;;24.53;41.72;97088.44;5033994;28;20424;-55
2023/07/15 05:14:36;;;;;;;4.10;3.70;;;23.30;51.00;;;24.56;41.87;97083.28;5034283;28;20050;-55
2023/07/15 05:17:07;;;;;;;4.00;3.03;;;23.40;50.90;;;24.59;41.88;97084.66;5034513;28;20041;-53
2023/07/15 05:19:35;;;;;;;5.10;3.15;;;23.40;51.10;;;24.62;41.72;97086.84;5033850;28;20519;-55
2023/07/15 05:22:02;;;;;;;3.63;3.25;;;23.40;51.10;;;24.67;41.59;97081.41;5034110;28;20052;-55
2023/07/15 05:24:31;;;;;;;5.28;4.10;;;23.40;51.60;;;24.70;41.67;97078.16;5034161;28;20049;-55
2023/07/15 05:26:59;;;;;;;4.75;4.20;;;23.50;51.00;;;24.77;41.54;97086.06;5033445;28;20053;-39
2023/07/15 05:29:27;;;;;;;3.78;3.33;;;23.50;50.80;;;24.81;41.66;97089.91;5033048;28;20052;-39
2023/07/15 05:31:54;;;;;;;4.22;3.42;;;23.60;50.60;;;24.83;41.50;97081.47;5034048;28;20057;-39
2023/07/15 05:34:22;;;;;;;3.95;3.13;;;23.60;50.60;;;24.83;41.48;97079.56;5033395;28;20041;-39
2023/07/15 05:36:49;;;;;;;3.88;3.28;;;23.70;50.50;;;24.87;41.30;97072.53;5034302;28;20045;-39
2023/07/15 05:39:19;;;;;;;5.80;3.28;;;23.70;50.00;;;24.92;41.27;97077.16;5032553;28;20072;-40
2023/07/15 05:41:49;;;;;;;4.27;3.43;;;23.80;49.60;;;24.98;40.89;97078.00;5026222;28;20046;-39
2023/07/15 05:44:17;;;;;;;3.60;3.05;;;23.80;49.30;;;25.04;40.89;97085.91;5033845;28;20049;-39
2023/07/15 05:46:45;;;;;;;5.05;3.00;;;23.90;49.30;;;25.09;40.53;97088.66;5033147;28;20045;-40
2023/07/15 05:49:12;;;;;;;4.40;3.38;;;23.90;48.70;;;25.13;40.46;97078.84;5033844;28;20045;-39
2023/07/15 05:51:40;;;;;;;6.25;2.92;;;24.00;48.30;;;25.17;40.16;97083.78;5033401;28;20045;-40
2023/07/15 05:54:08;;;;;;;3.92;3.30;;;24.10;48.10;;;25.24;40.02;97078.88;5033982;28;20043;-40
2023/07/15 05:56:35;;;;;;;6.20;3.28;;;24.20;47.80;;;25.29;40.00;97074.28;5033384;28;20068;-40
2023/07/15 05:59:03;;;;;;;3.42;3.10;;;24.20;47.60;;;25.29;39.72;97081.63;5032161;28;20103;-40
2023/07/15 06:01:31;;;;;;;3.60;2.83;;;24.30;47.20;;;25.40;39.60;97079.75;5032797;28;20053;-40
2023/07/15 06:03:59;;;;;;;3.42;3.13;;;24.40;47.20;;;25.47;39.57;97074.84;5033516;28;20045;-39
2023/07/15 06:06:26;;;;;;;5.13;3.30;;;24.40;47.10;;;25.50;39.46;97077.03;5033474;28;20045;-39
2023/07/15 06:08:54;;;;;;;4.80;3.20;;;24.50;47.00;;;25.57;39.54;97068.59;5033534;28;20041;-40
2023/07/15 06:11:22;;;;;;;4.55;3.03;;;24.50;46.70;;;25.65;39.15;97066.16;5032618;28;20046;-39
2023/07/15 06:13:49;;;;;;;3.90;3.20;;;24.60;46.60;;;25.72;39.14;97065.88;5033422;28;20037;-39
2023/07/15 06:16:17;;;;;;;4.13;3.30;;;24.70;46.70;;;25.80;39.19;97054.41;5033349;28;20053;-39
2023/07/15 06:18:45;;;;;;;3.53;3.00;;;24.70;46.70;;;25.89;38.78;97055.50;5033317;28;20048;-39
2023/07/15 06:21:12;;;;;;;3.65;3.13;;;24.90;46.00;;;26.02;38.85;97051.44;5031971;28;20045;-39
2023/07/15 06:23:41;;;;;;;4.32;2.97;;;25.00;45.80;;;26.13;38.74;97050.31;5031221;28;20037;-39
2023/07/15 06:26:08;;;;;;;4.40;3.03;;;25.10;45.40;;;26.22;38.21;97047.84;5031460;28;20046;-40
2023/07/15 06:28:36;;;;;;;3.40;3.10;;;25.20;45.30;;;26.28;38.12;97035.81;5032959;28;20041;-39
2023/07/15 06:31:07;;;;;;;5.40;2.95;;;25.30;45.40;;;26.35;38.29;97046.44;5032772;28;20528;-40
2023/07/15 06:33:36;;;;;;;5.78;3.42;;;25.40;45.10;;;26.39;37.69;97042.06;5031725;28;20060;-39
2023/07/15 06:36:04;;;;;;;4.93;3.28;;;25.40;44.70;;;26.43;38.10;97045.88;5032873;28;20405;-39
2023/07/15 06:38:32;;;;;;;3.78;3.00;;;25.40;44.60;;;26.46;37.98;97036.28;5032277;28;20050;-39
2023/07/15 06:41:00;;;;;;;3.90;3.00;;;25.40;44.60;;;26.50;38.04;97037.38;5032700;28;20513;-40
2023/07/15 06:43:27;;;;;;;4.20;3.22;;;25.50;44.70;;;26.52;37.76;97032.44;5033664;28;20095;-39
2023/07/15 06:45:55;;;;;;;4.93;3.25;;;25.50;44.10;;;26.57;37.75;97035.16;5031946;28;20045;-40
2023/07/15 06:48:23;;;;;;;3.63;3.13;;;25.50;44.20;;;26.61;37.28;97041.72;5032215;28;20049;-40
2023/07/15 06:50:50;;;;;;;4.88;2.92;;;25.60;43.50;;;26.67;37.00;97043.34;5032551;28;20056;-39
2023/07/15 06:53:18;;;;;;;3.78;3.10;;;25.70;43.30;;;26.73;36.48;97048.78;5032358;28;20048;-40
2023/07/15 06:55:45;;;;;;;5.03;3.38;;;25.70;42.90;;;26.77;36.77;97039.75;5031989;28;20066;-40
2023/07/15 06:58:13;;;;;;;5.53;3.58;;;25.80;42.50;;;26.83;36.70;97044.09;5032121;28;20061;-40
2023/07/15 07:00:41;;;;;;;3.53;3.10;;;25.80;42.40;;;26.87;36.41;97045.16;5032189;28;20496;-40
2023/07/15 07:03:09;;;;;;;3.88;3.00;;;25.90;42.10;;;26.91;36.24;97038.03;5032343;28;20049;-40
2023/07/15 07:05:36;;;;;;;3.05;2.75;;;25.90;41.90;;;26.95;36.16;97038.31;5032035;28;20497;-39
2023/07/15 07:08:04;;;;;;;4.55;3.22;;;25.90;41.50;;;27.00;36.16;97038.25;5032089;28;20049;-40
2023/07/15 07:10:32;;;;;;;3.95;2.88;;;26.00;42.10;;;27.06;35.70;97048.06;5030722;28;20073;-39
2023/07/15 07:12:59;;;;;;;3.80;2.90;;;26.10;42.10;;;27.10;35.74;97045.56;5031924;28;20041;-40
2023/07/15 07:15:29;;;;;;;3.17;2.78;;;26.10;42.00;;;27.18;35.33;97052.34;5031906;28;20041;-40
2023/07/15 07:17:57;;;;;;;3.45;2.95;;;26.20;40.80;;;27.22;35.18;97043.31;5031891;28;20042;-39
2023/07/15 07:20:25;;;;;;;3.22;2.92;;;26.20;40.40;;;27.22;34.65;97043.31;5030729;28;20053;-39
2023/07/15 07:22:52;;;;;;;3.72;2.92;;;26.30;39.50;;;27.24;34.87;97051.25;5031584;28;20412;-40
2023/07/15 07:25:20;;;;;;;4.72;3.38;;;26.40;39.70;;;27.30;34.70;97053.69;5032154;28;20053;-40
2023/07/15 07:27:48;;;;;;;3.50;3.20;;;26.40;39.80;;;27.37;34.56;97055.28;5031710;28;20041;-44
2023/07/15 07:30:16;;;;;;;5.90;3.40;;;26.40;39.90;;;27.45;34.31;97060.97;5031248;28;20416;-40
2023/07/15 07:32:44;;;;;;;3.85;3.20;;;26.50;39.70;;;27.52;34.82;97054.34;5031638;28;20144;-48
2023/07/15 07:35:11;;;;;;;3.83;3.10;;;26.60;40.00;;;27.59;34.51;97050.19;5031703;28;20511;-40
2023/07/15 07:37:39;;;;;;;4.57;2.90;;;26.70;40.00;;;27.67;34.55;97046.03;5030571;28;20500;-39
2023/07/15 07:40:09;;;;;;;3.65;3.05;;;26.70;39.70;;;27.75;34.53;97048.13;5031683;28;20413;-40
2023/07/15 07:42:37;;;;;;;4.82;3.08;;;26.80;39.40;;;27.83;34.13;97046.72;5031256;28;20053;-40
2023/07/15 07:45:16;;;;;;;4.00;3.20;;;27.00;39.50;;;27.93;34.22;97048.56;5031745;28;20049;-40
2023/07/15 07:47:43;;;;;;;3.92;2.83;;;27.10;38.50;;;28.05;34.01;97049.81;5031741;28;20053;-40
2023/07/15 07:50:11;;;;;;;6.15;3.22;;;27.20;38.90;;;28.19;33.89;97047.22;5031437;28;20052;-40
2023/07/15 07:52:39;;;;;;;3.38;2.75;;;27.30;39.00;;;28.32;33.51;97042.16;5031776;28;20050;-40
2023/07/15 07:55:07;;;;;;;3.38;3.08;;;27.40;38.90;;;28.44;33.34;97051.59;5031517;28;20412;-40
2023/07/15 07:57:34;;;;;;;3.33;3.03;;;27.50;38.70;;;28.49;32.92;97053.44;5031236;28;20041;-40
2023/07/15 08:00:04;;;;;;;3.53;3.20;;;27.60;37.70;;;28.59;33.29;97045.13;5031519;28;20042;-40
2023/07/15 08:02:32;;;;;;;4.10;3.38;;;27.80;37.80;;;28.70;33.05;97053.25;5030704;28;20049;-38
2023/07/15 08:04:59;;;;;;;3.47;2.80;;;27.90;37.00;;;28.82;32.63;97056.38;5016406;28;20053;-39
2023/07/15 08:07:27;;;;;;;4.60;3.25;;;28.00;37.60;;;28.96;32.57;97057.25;5023145;28;20045;-39
2023/07/15 08:09:54;;;;;;;3.20;2.88;;;28.10;37.50;;;29.05;32.16;97051.94;5023796;28;20519;-39
2023/07/15 08:12:22;;;;;;;3.40;3.10;;;28.20;36.80;;;29.14;31.93;97061.19;5025802;28;20657;-38
2023/07/15 08:14:50;;;;;;;6.57;3.33;;;28.40;36.40;;;29.20;31.46;97048.22;5026941;28;20060;-39
2023/07/15 08:17:18;;;;;;;3.22;2.67;;;28.40;35.80;;;29.21;31.13;97060.78;5024708;28;20382;-39
2023/07/15 08:19:45;;;;;;;3.47;2.95;;;28.40;34.90;;;29.25;31.45;97050.88;5025908;28;20421;-38
2023/07/15 08:22:13;;;;;;;2.97;2.58;;;28.40;35.80;;;29.31;31.46;97057.09;5025689;28;20038;-39
2023/07/15 08:24:40;;;;;;;3.55;3.00;;;28.40;36.10;;;29.37;31.52;97054.00;5036186;28;20045;-39
2023/07/15 08:27:08;;;;;;;3.25;2.63;;;28.50;36.00;;;29.41;31.35;97066.00;5030824;28;20053;-38
2023/07/15 08:29:36;;;;;;;5.50;3.03;;;28.50;35.80;;;29.47;31.45;97055.75;5030218;28;20390;-39
2023/07/15 08:32:05;;;;;;;5.30;3.05;;;28.60;35.70;;;29.50;30.90;97063.38;5030748;28;20390;-39
2023/07/15 08:34:33;;;;;;;3.45;3.15;;;28.60;35.70;;;29.51;31.18;97061.44;5031124;28;20056;-38
2023/07/15 08:37:00;;;;;;;4.50;3.38;;;28.60;35.60;;;29.56;31.09;97067.66;5031198;28;20046;-39
2023/07/15 08:39:28;;;;;;;4.82;3.05;;;28.70;35.50;;;29.61;31.18;97064.84;5030268;28;20045;-39
2023/07/15 08:41:57;;;;;;;3.03;2.72;;;28.70;35.60;;;29.71;31.10;97071.28;5030546;28;20424;-39
2023/07/15 08:44:25;;;;;;;3.58;2.78;;;28.80;35.50;;;29.79;31.10;97073.38;5026032;28;20421;-39
2023/07/15 08:46:54;;;;;;;3.47;3.17;;;28.90;35.40;;;29.86;30.92;97071.06;5022849;28;20409;-40
2023/07/15 08:49:22;;;;;;;5.38;3.60;;;28.90;35.20;;;29.91;30.49;97075.63;5030804;28;20052;-40
2023/07/15 08:51:50;;;;;;;4.70;3.15;;;29.00;35.10;;;29.96;30.34;97076.38;5028758;28;20493;-40
2023/07/15 08:54:19;;;;;;;6.35;3.00;;;29.10;35.00;;;30.03;30.71;97076.81;5026020;28;20056;-40
2023/07/15 08:56:47;;;;;;;3.35;3.05;;;29.20;35.00;;;30.05;30.68;97079.25;5029838;28;20041;-40
2023/07/15 08:59:18;;;;;;;3.53;3.20;;;29.20;35.00;;;30.09;30.41;97072.03;5030302;28;20389;-40
2023/07/15 09:01:46;;;;;;;3.28;3.00;;;29.20;35.00;;;30.11;30.52;97058.00;5030506;28;20128;-40
2023/07/15 09:04:13;;;;;;;4.53;3.00;;;29.20;35.30;;;30.14;30.40;97069.19;5030718;28;20045;-39
2023/07/15 09:06:42;;;;;;;4.90;3.30;;;29.20;35.40;;;30.16;30.58;97057.91;5030457;28;20042;-39
2023/07/15 09:09:09;;;;;;;4.95;3.47;;;29.20;35.30;;;30.15;30.55;97057.09;5032774;28;20045;-40
2023/07/15 09:11:40;;;;;;;4.18;3.00;;;29.20;35.30;;;30.16;30.76;97055.97;5033774;28;20061;-40
2023/07/15 09:14:15;;;;;;;3.50;3.20;;;29.20;35.50;;;30.21;30.68;97061.38;5033075;28;20049;-40
2023/07/15 09:16:43;;;;;;;3.72;3.05;;;29.20;35.20;;;30.27;30.52;97058.56;5034077;28;20104;-40
2023/07/15 09:19:12;;;;;;;4.00;3.40;;;29.30;35.30;;;30.33;30.74;97060.09;5034319;28;20067;-40
2023/07/15 09:21:52;;;;;;;4.68;3.63;;;29.40;36.30;;;30.40;30.54;97058.59;5033724;28;20041;-40
2023/07/15 09:24:21;;;;;;;3.90;3.50;;;29.40;34.90;;;30.50;30.20;97048.53;5033783;28;20046;-40
2023/07/15 09:26:54;;;;;;;3.42;3.10;;;29.50;34.70;;;30.58;29.95;97054.13;5030337;28;20056;-42
2023/07/15 09:29:22;;;;;;;3.85;3.40;;;29.60;34.20;;;30.68;29.61;97050.34;5034074;28;20053;-40
2023/07/15 09:31:50;;;;;;;5.20;4.05;;;29.80;33.90;;;30.80;30.01;97047.06;5033473;28;20543;-40
2023/07/15 09:34:22;;;;;;;3.30;3.00;;;30.00;34.20;;;30.95;29.18;97055.03;5033014;28;20056;-40
2023/07/15 09:36:51;;;;;;;4.45;3.20;;;30.10;33.80;;;31.10;29.10;97055.81;5032472;28;20045;-40
2023/07/15 09:39:22;;;;;;;4.03;3.17;;;30.30;33.70;;;31.23;29.07;97065.16;5033525;28;20064;-40
2023/07/15 09:42:05;;;;;;;4.03;3.40;;;30.40;32.60;;;31.27;28.87;97057.91;5032055;28;20037;-40
2023/07/15 09:44:37;;;;;;;;;;;30.50;32.20;;;31.33;29.35;97060.25;5034182;28;20068;-40
2023/07/15 09:47:05;;;;;;;4.57;4.18;;;30.60;32.10;;;31.39;29.03;97053.50;5033369;28;19921;-40
2023/07/15 09:49:35;;;;;;;3.47;3.03;;;30.50;32.90;;;31.41;28.96;97039.44;5033481;28;20057;-40
2023/07/15 09:52:05;;;;;;;3.70;3.40;;;30.50;32.90;;;31.44;28.59;97049.00;5032269;28;20049;-41
2023/07/15 09:54:34;;;;;;;4.10;3.70;;;30.60;32.80;;;31.44;28.65;97049.00;5026249;28;20042;-40
2023/07/15 09:57:12;;;;;;;3.40;3.10;;;30.60;32.70;;;31.46;28.77;97049.53;5024044;28;20042;-40
2023/07/15 09:59:48;;;;;;;3.90;3.60;;;30.60;32.20;;;31.47;28.37;97042.91;5026639;28;20046;-40
2023/07/15 10:02:42;;;;;;;4.22;3.30;;;30.60;32.20;;;31.54;28.85;97035.84;5033045;28;20042;-40
2023/07/15 10:05:13;;;;;;;4.85;3.83;;;30.70;31.50;;;31.67;28.31;97036.91;5027479;28;20064;-40
2023/07/15 10:07:41;;;;;;;4.82;3.42;;;30.90;31.60;;;31.78;27.96;97024.50;5033383;28;20041;-40
2023/07/15 10:10:09;;;;;;;3.90;3.60;;;31.10;31.60;;;31.90;28.17;97020.38;5032192;28;20520;-40
2023/07/15 10:12:38;;;;;;;5.68;3.63;;;31.20;31.70;;;32.01;27.76;97026.41;5032871;28;20048;-42
2023/07/15 10:15:07;;;;;;;3.50;3.17;;;31.30;31.70;;;32.08;27.88;97026.81;5031918;28;20452;-41
2023/07/15 10:17:38;;;;;;;6.57;3.78;;;31.30;31.50;;;32.14;28.02;97022.78;5033538;28;20038;-56
2023/07/15 10:20:12;;;;;;;3.88;3.20;;;31.40;31.10;;;32.26;27.33;97019.44;5032891;28;20044;-53
2023/07/15 10:22:43;;;;;;;4.00;3.60;;;31.50;30.60;;;32.33;27.17;97022.56;5032974;28;20048;-55
2023/07/15 10:25:15;;;;;;;4.78;3.53;;;31.60;31.00;;;32.39;27.88;97018.53;5033122;28;20372;-55
2023/07/15 10:27:43;;;;;;;4.65;3.95;;;31.70;31.20;;;32.46;27.71;97020.81;5032772;28;20061;-55